createdAt,value
2024-03-26T00:00:49.469Z,4.8461
2024-03-26T00:01:52.273Z,4.8230
2024-03-26T00:02:55.032Z,4.7961
2024-03-26T00:03:57.708Z,4.7576
2024-03-26T00:05:00.398Z,4.7920
2024-03-26T00:06:03.123Z,4.7466
2024-03-26T00:07:05.869Z,4.8076
2024-03-26T00:08:08.534Z,5.1276
2024-03-26T00:09:11.257Z,5.0193
2024-03-26T00:10:14.013Z,5.0228
2024-03-26T00:11:16.736Z,5.0472
2024-03-26T00:12:19.524Z,5.0095
2024-03-26T00:13:22.184Z,4.9482
2024-03-26T00:14:24.953Z,4.9868
2024-03-26T00:15:27.618Z,4.9424
2024-03-26T00:16:30.335Z,4.9820
2024-03-26T00:17:33.017Z,4.8651
2024-03-26T00:18:35.763Z,4.9530
2024-03-26T00:19:38.506Z,5.0256
2024-03-26T00:20:41.184Z,4.9151
2024-03-26T00:21:43.962Z,4.8690
2024-03-26T00:22:46.659Z,4.8126
2024-03-26T00:23:49.346Z,4.7519
2024-03-26T00:24:52.026Z,4.8042
2024-03-26T00:25:54.747Z,4.8666
2024-03-26T00:26:57.562Z,4.8347
2024-03-26T00:28:00.280Z,4.7966
2024-03-26T00:29:02.942Z,4.7964
2024-03-26T00:30:05.702Z,4.7816
2024-03-26T00:31:08.435Z,4.6482
2024-03-26T00:32:11.477Z,4.7487
2024-03-26T00:33:14.223Z,4.7519
2024-03-26T00:34:16.889Z,4.8445
2024-03-26T00:35:19.627Z,4.6838
2024-03-26T00:36:22.457Z,4.6433
2024-03-26T00:37:25.150Z,4.6457
2024-03-26T00:38:27.893Z,4.5655
2024-03-26T00:39:30.629Z,4.5764
2024-03-26T00:40:33.312Z,4.7159
2024-03-26T00:41:36.004Z,4.6220
2024-03-26T00:42:38.651Z,4.5785
2024-03-26T00:43:41.388Z,4.5561
2024-03-26T00:44:44.097Z,4.6381
2024-03-26T00:45:46.820Z,4.7107
2024-03-26T00:46:49.503Z,4.6306
2024-03-26T00:47:52.264Z,4.6333
2024-03-26T00:48:54.941Z,4.6396
2024-03-26T00:49:57.698Z,4.7061
2024-03-26T00:51:00.417Z,4.7567
2024-03-26T00:52:03.177Z,4.5886
2024-03-26T00:53:05.867Z,4.4805
2024-03-26T00:54:08.576Z,4.3802
2024-03-26T00:55:11.242Z,4.3600
2024-03-26T00:56:14.017Z,4.3182
2024-03-26T00:57:16.720Z,4.3871
2024-03-26T00:58:19.458Z,4.4230
2024-03-26T00:59:22.161Z,4.4205
2024-03-26T01:00:24.840Z,4.4351
2024-03-26T01:01:27.531Z,4.4803
2024-03-26T01:02:30.385Z,4.3951
2024-03-26T01:03:33.051Z,4.1157
2024-03-26T01:04:35.776Z,4.1029
2024-03-26T01:05:38.445Z,4.1191
2024-03-26T01:06:41.217Z,4.1835
2024-03-26T01:07:43.906Z,4.2109
2024-03-26T01:08:46.589Z,4.1599
2024-03-26T01:09:49.304Z,4.1904
2024-03-26T01:10:52.176Z,4.2567
2024-03-26T01:11:54.871Z,4.0928
2024-03-26T01:12:57.590Z,3.9553
2024-03-26T01:14:00.252Z,4.0456
2024-03-26T01:15:03.014Z,4.1090
2024-03-26T01:16:05.702Z,4.0338
2024-03-26T01:17:08.445Z,4.0535
2024-03-26T01:18:11.078Z,4.0170
2024-03-26T01:19:13.916Z,3.9818
2024-03-26T01:20:16.891Z,3.9712
2024-03-26T01:21:22.866Z,3.9370
2024-03-26T01:22:22.784Z,3.9963
2024-03-26T01:23:25.440Z,4.0209
2024-03-26T01:24:28.185Z,3.9587
2024-03-26T01:25:31.077Z,3.9367
2024-03-26T01:26:33.858Z,4.0683
2024-03-26T01:27:36.586Z,4.0906
2024-03-26T01:28:39.300Z,4.1557
2024-03-26T01:29:41.969Z,4.1835
2024-03-26T01:30:44.721Z,4.3176
2024-03-26T01:31:47.466Z,4.2527
2024-03-26T01:32:50.217Z,4.2889
2024-03-26T01:33:52.905Z,4.1631
2024-03-26T01:34:55.918Z,4.0200
2024-03-26T01:35:58.670Z,4.0241
2024-03-26T01:37:01.383Z,4.1223
2024-03-26T01:38:04.019Z,4.0309
2024-03-26T01:39:06.794Z,3.9663
2024-03-26T01:40:09.544Z,3.9022
2024-03-26T01:41:12.246Z,3.9164
2024-03-26T01:42:14.984Z,4.0458
2024-03-26T01:43:17.668Z,4.0792
2024-03-26T01:44:20.430Z,4.1032
2024-03-26T01:45:23.137Z,4.0931
2024-03-26T01:46:25.857Z,4.1208
2024-03-26T01:47:28.535Z,4.1421
2024-03-26T01:48:31.309Z,4.0249
2024-03-26T01:49:34.017Z,4.1013
2024-03-26T01:50:36.789Z,4.0443
2024-03-26T01:51:39.522Z,4.0088
2024-03-26T01:52:42.197Z,3.9853
2024-03-26T01:53:44.963Z,4.0436
2024-03-26T01:54:47.698Z,4.0173
2024-03-26T01:55:50.365Z,4.0071
2024-03-26T01:56:53.063Z,3.9321
2024-03-26T01:57:55.732Z,3.9390
2024-03-26T01:58:58.429Z,3.9666
2024-03-26T02:00:01.145Z,3.9157
2024-03-26T02:01:03.941Z,3.8317
2024-03-26T02:02:06.651Z,3.7968
2024-03-26T02:03:09.318Z,3.7469
2024-03-26T02:04:12.102Z,3.7887
2024-03-26T02:05:14.822Z,3.8241
2024-03-26T02:06:17.533Z,3.8333
2024-03-26T02:07:20.219Z,3.8498
2024-03-26T02:08:22.988Z,3.7243
2024-03-26T02:09:25.699Z,3.7215
2024-03-26T02:10:28.410Z,3.8074
2024-03-26T02:11:31.143Z,3.6823
2024-03-26T02:12:33.873Z,3.4847
2024-03-26T02:13:36.607Z,3.6878
2024-03-26T02:14:39.346Z,3.7431
2024-03-26T02:15:42.078Z,3.7196
2024-03-26T02:16:44.802Z,3.6768
2024-03-26T02:17:47.566Z,3.7492
2024-03-26T02:18:50.224Z,3.7578
2024-03-26T02:19:52.960Z,3.8195
2024-03-26T02:20:55.732Z,3.7739
2024-03-26T02:21:58.478Z,3.7747
2024-03-26T02:23:01.188Z,3.7694
2024-03-26T02:24:04.134Z,3.7227
2024-03-26T02:25:06.820Z,3.8102
2024-03-26T02:26:09.558Z,3.7563
2024-03-26T02:27:12.255Z,3.8163
2024-03-26T02:28:14.970Z,3.8053
2024-03-26T02:29:17.742Z,3.8687
2024-03-26T02:30:20.427Z,3.7974
2024-03-26T02:31:23.138Z,3.8031
2024-03-26T02:32:25.962Z,3.7187
2024-03-26T02:33:28.655Z,3.8105
2024-03-26T02:34:31.405Z,3.8845
2024-03-26T02:35:34.131Z,3.9602
2024-03-26T02:36:36.854Z,3.9410
2024-03-26T02:37:39.581Z,3.9766
2024-03-26T02:38:42.358Z,3.9587
2024-03-26T02:39:45.160Z,4.1616
2024-03-26T02:40:47.939Z,4.1394
2024-03-26T02:41:50.717Z,4.1468
2024-03-26T02:42:53.448Z,4.0989
2024-03-26T02:43:56.228Z,4.0692
2024-03-26T02:44:58.963Z,4.0893
2024-03-26T02:46:01.852Z,4.1044
2024-03-26T02:47:04.586Z,4.0594
2024-03-26T02:48:07.324Z,4.0636
2024-03-26T02:49:10.011Z,4.0606
2024-03-26T02:50:12.742Z,3.9713
2024-03-26T02:51:15.458Z,3.9255
2024-03-26T02:52:18.173Z,3.9210
2024-03-26T02:53:20.958Z,3.8710
2024-03-26T02:54:23.675Z,3.9756
2024-03-26T02:55:26.569Z,3.9988
2024-03-26T02:56:29.372Z,4.1903
2024-03-26T02:57:32.113Z,4.1324
2024-03-26T02:58:34.850Z,4.0514
2024-03-26T02:59:37.668Z,3.9391
2024-03-26T03:00:40.556Z,3.9011
2024-03-26T03:01:43.297Z,3.8164
2024-03-26T03:02:47.255Z,3.9577
2024-03-26T03:03:47.137Z,3.9350
2024-03-26T03:04:49.977Z,3.9390
2024-03-26T03:05:52.719Z,3.9993
2024-03-26T03:06:55.425Z,4.1047
2024-03-26T03:07:58.154Z,4.1545
2024-03-26T03:09:00.937Z,4.1553
2024-03-26T03:10:03.751Z,4.1544
2024-03-26T03:11:06.482Z,4.1363
2024-03-26T03:12:09.217Z,3.9988
2024-03-26T03:13:11.996Z,4.0123
2024-03-26T03:14:14.777Z,4.0867
2024-03-26T03:15:17.515Z,3.9827
2024-03-26T03:16:20.244Z,3.9409
2024-03-26T03:17:23.041Z,3.9439
2024-03-26T03:18:25.854Z,3.9516
2024-03-26T03:19:28.578Z,3.9626
2024-03-26T03:20:31.321Z,3.9867
2024-03-26T03:21:34.068Z,3.8691
2024-03-26T03:22:36.840Z,3.8519
2024-03-26T03:23:39.773Z,3.8851
2024-03-26T03:24:42.497Z,3.9721
2024-03-26T03:25:45.262Z,3.9336
2024-03-26T03:26:48.011Z,3.9749
2024-03-26T03:27:50.724Z,3.9186
2024-03-26T03:28:53.437Z,3.9126
2024-03-26T03:29:56.177Z,3.8913
2024-03-26T03:30:58.968Z,3.8405
2024-03-26T03:32:01.696Z,3.8827
2024-03-26T03:33:04.580Z,3.8132
2024-03-26T03:34:07.285Z,3.7742
2024-03-26T03:35:10.040Z,3.7518
2024-03-26T03:36:12.722Z,3.8866
2024-03-26T03:37:15.464Z,3.8430
2024-03-26T03:38:18.165Z,3.8667
2024-03-26T03:39:20.899Z,3.9802
2024-03-26T03:40:23.603Z,3.9664
2024-03-26T03:41:26.340Z,4.0226
2024-03-26T03:42:29.045Z,4.0513
2024-03-26T03:43:31.778Z,4.0597
2024-03-26T03:44:34.495Z,4.0814
2024-03-26T03:45:37.479Z,4.1001
2024-03-26T03:46:40.245Z,4.0872
2024-03-26T03:47:42.988Z,4.0657
2024-03-26T03:48:45.680Z,4.1203
2024-03-26T03:49:48.393Z,4.2088
2024-03-26T03:50:51.242Z,4.1881
2024-03-26T03:51:53.962Z,4.1309
2024-03-26T03:52:56.692Z,4.1118
2024-03-26T03:53:59.420Z,4.1349
2024-03-26T03:55:02.338Z,4.1363
2024-03-26T03:56:05.057Z,4.0591
2024-03-26T03:57:07.785Z,4.0123
2024-03-26T03:58:10.831Z,3.9836
2024-03-26T03:59:13.531Z,3.9229
2024-03-26T04:00:16.272Z,3.8747
2024-03-26T04:01:18.968Z,3.8538
2024-03-26T04:02:21.693Z,3.9307
2024-03-26T04:03:24.460Z,3.9517
2024-03-26T04:04:27.228Z,3.9890
2024-03-26T04:05:29.955Z,3.9160
2024-03-26T04:06:32.731Z,4.0302
2024-03-26T04:07:35.620Z,4.0398
2024-03-26T04:08:38.336Z,4.0004
2024-03-26T04:09:41.048Z,3.9946
2024-03-26T04:10:43.767Z,3.9344
2024-03-26T04:11:46.485Z,3.8758
2024-03-26T04:12:49.299Z,3.9050
2024-03-26T04:13:52.014Z,3.8787
2024-03-26T04:14:54.749Z,3.8492
2024-03-26T04:15:57.696Z,3.9137
2024-03-26T04:17:00.426Z,3.9399
2024-03-26T04:18:03.207Z,3.9949
2024-03-26T04:19:05.977Z,3.9407
2024-03-26T04:20:08.717Z,3.9507
2024-03-26T04:21:11.402Z,3.9703
2024-03-26T04:22:14.140Z,3.9274
2024-03-26T04:23:16.912Z,3.9439
2024-03-26T04:24:19.776Z,3.8820
2024-03-26T04:25:22.593Z,3.8418
2024-03-26T04:26:25.322Z,3.8399
2024-03-26T04:27:28.060Z,3.7607
2024-03-26T04:28:30.808Z,3.7142
2024-03-26T04:29:33.548Z,3.5958
2024-03-26T04:30:36.395Z,3.5430
2024-03-26T04:31:39.142Z,3.5209
2024-03-26T04:32:41.860Z,3.5926
2024-03-26T04:33:44.591Z,3.5847
2024-03-26T04:34:47.271Z,3.6034
2024-03-26T04:35:50.038Z,3.6006
2024-03-26T04:36:52.723Z,3.6411
2024-03-26T04:37:55.457Z,3.6690
2024-03-26T04:38:58.484Z,3.4466
2024-03-26T04:40:01.253Z,3.4766
2024-03-26T04:41:04.007Z,3.4883
2024-03-26T04:42:06.748Z,3.5061
2024-03-26T04:43:09.455Z,3.4752
2024-03-26T04:44:12.207Z,3.4165
2024-03-26T04:45:14.944Z,3.3757
2024-03-26T04:46:17.667Z,3.3918
2024-03-26T04:47:20.605Z,3.4067
2024-03-26T04:48:23.379Z,3.4203
2024-03-26T04:49:26.086Z,3.5052
2024-03-26T04:50:28.887Z,3.5490
2024-03-26T04:51:31.774Z,3.4267
2024-03-26T04:52:34.520Z,3.4378
2024-03-26T04:53:37.342Z,3.3975
2024-03-26T04:54:40.251Z,3.3694
2024-03-26T04:55:42.964Z,3.3438
2024-03-26T04:56:45.684Z,3.2985
2024-03-26T04:57:48.412Z,3.2727
2024-03-26T04:58:51.151Z,3.1990
2024-03-26T04:59:53.860Z,3.1457
2024-03-26T05:00:56.577Z,3.1859
2024-03-26T05:01:59.376Z,3.3509
2024-03-26T05:03:02.135Z,3.3227
2024-03-26T05:04:04.876Z,3.2398
2024-03-26T05:05:07.618Z,3.2218
2024-03-26T05:06:10.430Z,3.1567
2024-03-26T05:07:13.154Z,3.3031
2024-03-26T05:08:15.946Z,3.2272
2024-03-26T05:09:18.649Z,3.2540
2024-03-26T05:10:21.397Z,3.1963
2024-03-26T05:11:24.154Z,3.1394
2024-03-26T05:12:27.220Z,3.1910
2024-03-26T05:13:29.925Z,3.2134
2024-03-26T05:14:32.890Z,3.3628
2024-03-26T05:15:35.612Z,3.3416
2024-03-26T05:16:38.379Z,3.2840
2024-03-26T05:17:41.118Z,3.4165
2024-03-26T05:18:43.852Z,3.3048
2024-03-26T05:19:46.584Z,3.3395
2024-03-26T05:20:49.348Z,3.4180
2024-03-26T05:21:52.196Z,3.3512
2024-03-26T05:22:55.009Z,3.3604
2024-03-26T05:23:57.755Z,3.3395
2024-03-26T05:25:00.503Z,3.3346
2024-03-26T05:26:03.456Z,3.3815
2024-03-26T05:27:06.239Z,3.3509
2024-03-26T05:28:08.967Z,3.3564
2024-03-26T05:29:11.776Z,3.2207
2024-03-26T05:30:14.478Z,3.2979
2024-03-26T05:31:17.159Z,3.3074
2024-03-26T05:32:19.845Z,3.2766
2024-03-26T05:33:22.556Z,3.2939
2024-03-26T05:34:25.344Z,3.3665
2024-03-26T05:35:28.271Z,3.2767
2024-03-26T05:36:30.971Z,3.2119
2024-03-26T05:37:33.669Z,3.1152
2024-03-26T05:38:36.442Z,3.1965
2024-03-26T05:39:39.085Z,3.2100
2024-03-26T05:40:41.860Z,3.2609
2024-03-26T05:41:44.536Z,3.1938
2024-03-26T05:42:47.291Z,3.1809
2024-03-26T05:43:50.028Z,3.1398
2024-03-26T05:44:52.793Z,3.1730
2024-03-26T05:45:55.436Z,3.1310
2024-03-26T05:46:58.177Z,3.1444
2024-03-26T05:48:00.900Z,3.2313
2024-03-26T05:49:03.622Z,3.2929
2024-03-26T05:50:06.303Z,3.3291
2024-03-26T05:51:09.037Z,3.3289
2024-03-26T05:52:11.778Z,3.3647
2024-03-26T05:53:14.500Z,3.4094
2024-03-26T05:54:17.186Z,3.4306
2024-03-26T05:55:19.937Z,3.4417
2024-03-26T05:56:22.993Z,3.5525
2024-03-26T05:57:25.694Z,3.4436
2024-03-26T05:58:28.422Z,3.5454
2024-03-26T05:59:31.124Z,3.4963
2024-03-26T06:00:33.891Z,3.5340
2024-03-26T06:01:36.587Z,3.5375
2024-03-26T06:02:39.359Z,3.5044
2024-03-26T06:03:42.054Z,3.5408
2024-03-26T06:04:44.739Z,3.6068
2024-03-26T06:05:47.570Z,3.6341
2024-03-26T06:06:50.254Z,3.6544
2024-03-26T06:07:52.916Z,3.7127
2024-03-26T06:08:55.690Z,3.7599
2024-03-26T06:09:58.347Z,3.7445
2024-03-26T06:11:01.058Z,3.7710
2024-03-26T06:12:03.741Z,3.8041
2024-03-26T06:13:07.785Z,3.7163
2024-03-26T06:14:07.084Z,3.7059
2024-03-26T06:15:09.786Z,3.7331
2024-03-26T06:16:12.474Z,3.7242
2024-03-26T06:17:15.146Z,3.8238
2024-03-26T06:18:17.809Z,3.8713
2024-03-26T06:19:20.585Z,3.8709
2024-03-26T06:20:23.250Z,3.9431
2024-03-26T06:21:25.997Z,3.9759
2024-03-26T06:22:28.762Z,3.9658
2024-03-26T06:23:31.528Z,4.0069
2024-03-26T06:24:34.173Z,4.0670
2024-03-26T06:25:36.869Z,4.1158
2024-03-26T06:26:39.613Z,4.1348
2024-03-26T06:27:42.288Z,4.1346
2024-03-26T06:28:45.056Z,4.1677
2024-03-26T06:29:47.782Z,4.2504
2024-03-26T06:30:50.491Z,4.2210
2024-03-26T06:31:53.234Z,4.3060
2024-03-26T06:32:55.987Z,4.3274
2024-03-26T06:33:58.678Z,4.3701
2024-03-26T06:35:01.373Z,4.3597
2024-03-26T06:36:04.100Z,4.3600
2024-03-26T06:37:06.805Z,4.4195
2024-03-26T06:38:09.880Z,4.4006
2024-03-26T06:39:12.625Z,4.3781
2024-03-26T06:40:15.319Z,4.3741
2024-03-26T06:41:17.996Z,4.3913
2024-03-26T06:42:20.746Z,4.4870
2024-03-26T06:43:23.459Z,4.5389
2024-03-26T06:44:26.231Z,4.5006
2024-03-26T06:45:29.223Z,4.5598
2024-03-26T06:46:31.918Z,4.5997
2024-03-26T06:47:34.650Z,4.8010
2024-03-26T06:48:37.387Z,4.8107
2024-03-26T06:49:40.147Z,4.8230
2024-03-26T06:50:42.836Z,4.9703
2024-03-26T06:51:46.135Z,4.9886
2024-03-26T06:52:48.926Z,5.0515
2024-03-26T06:53:51.608Z,4.9130
2024-03-26T06:54:54.352Z,4.9288
2024-03-26T06:55:57.076Z,4.9854
2024-03-26T06:56:59.780Z,5.2324
2024-03-26T06:58:02.558Z,5.2902
2024-03-26T06:59:05.212Z,5.3041
2024-03-26T07:00:07.922Z,5.4363
2024-03-26T07:01:10.591Z,5.4876
2024-03-26T07:02:13.390Z,5.4431
2024-03-26T07:03:16.142Z,5.3755
2024-03-26T07:04:18.817Z,5.4489
2024-03-26T07:05:21.536Z,5.4097
2024-03-26T07:06:24.256Z,5.5459
2024-03-26T07:07:26.993Z,5.4410
2024-03-26T07:08:29.687Z,5.6291
2024-03-26T07:09:32.362Z,5.6219
2024-03-26T07:10:35.134Z,5.6836
2024-03-26T07:11:37.868Z,5.5627
2024-03-26T07:12:40.557Z,5.5455
2024-03-26T07:13:43.232Z,5.3743
2024-03-26T07:14:46.036Z,5.5468
2024-03-26T07:15:48.820Z,5.5734
2024-03-26T07:16:51.478Z,5.4992
2024-03-26T07:17:54.209Z,5.3772
2024-03-26T07:18:56.873Z,5.4416
2024-03-26T07:19:59.631Z,5.5416
2024-03-26T07:21:02.340Z,5.4530
2024-03-26T07:22:05.115Z,5.3167
2024-03-26T07:23:07.754Z,5.3074
2024-03-26T07:24:10.503Z,5.2921
2024-03-26T07:25:13.241Z,5.2649
2024-03-26T07:26:15.960Z,5.2744
2024-03-26T07:27:18.663Z,5.3486
2024-03-26T07:28:21.374Z,5.4473
2024-03-26T07:29:24.099Z,5.5254
2024-03-26T07:30:26.844Z,5.5379
2024-03-26T07:31:29.511Z,5.6101
2024-03-26T07:32:32.223Z,5.7048
2024-03-26T07:33:34.985Z,5.8747
2024-03-26T07:34:37.723Z,5.8727
2024-03-26T07:35:40.443Z,5.9212
2024-03-26T07:36:43.162Z,5.9564
2024-03-26T07:37:45.859Z,6.0671
2024-03-26T07:38:48.591Z,6.0990
2024-03-26T07:39:51.277Z,6.1798
2024-03-26T07:40:53.998Z,6.5118
2024-03-26T07:41:56.743Z,6.7453
2024-03-26T07:43:01.417Z,6.5878
2024-03-26T07:43:59.419Z,6.6472
2024-03-26T07:45:02.536Z,6.8352
2024-03-26T07:46:05.208Z,7.1235
2024-03-26T07:47:08.098Z,6.9435
2024-03-26T07:48:10.857Z,6.8926
2024-03-26T07:49:13.561Z,6.9008
2024-03-26T07:50:16.302Z,7.1351
2024-03-26T07:51:19.646Z,7.1408
2024-03-26T07:52:19.545Z,7.0744
2024-03-26T07:53:22.333Z,7.2331
2024-03-26T07:54:24.947Z,7.4384
2024-03-26T07:55:27.688Z,7.1757
2024-03-26T07:56:30.389Z,6.8128
2024-03-26T07:57:33.115Z,6.9351
2024-03-26T07:58:35.786Z,7.3899
2024-03-26T07:59:38.533Z,7.4100
2024-03-26T08:00:41.323Z,7.5215
2024-03-26T08:01:44.263Z,7.9169
2024-03-26T08:02:46.948Z,7.9805
2024-03-26T08:03:49.712Z,7.6059
2024-03-26T08:04:52.414Z,7.7957
2024-03-26T08:05:55.220Z,8.0811
2024-03-26T08:06:57.941Z,8.0582
2024-03-26T08:08:00.878Z,8.0971
2024-03-26T08:09:03.612Z,8.0737
2024-03-26T08:10:06.399Z,8.2554
2024-03-26T08:11:09.381Z,8.2195
2024-03-26T08:12:12.050Z,7.9167
2024-03-26T08:13:14.823Z,8.1987
2024-03-26T08:14:17.581Z,8.2613
2024-03-26T08:15:20.303Z,8.3147
2024-03-26T08:16:23.032Z,8.2385
2024-03-26T08:17:25.735Z,8.1323
2024-03-26T08:18:28.493Z,8.6430
2024-03-26T08:19:31.630Z,8.6975
2024-03-26T08:20:31.383Z,8.7869
2024-03-26T08:21:34.079Z,9.0225
2024-03-26T08:22:36.761Z,8.8623
2024-03-26T08:23:39.480Z,8.5196
2024-03-26T08:24:42.240Z,8.6540
2024-03-26T08:25:44.940Z,8.8812
2024-03-26T08:26:47.636Z,8.9217
2024-03-26T08:27:50.341Z,9.4526
2024-03-26T08:28:53.069Z,9.3229
2024-03-26T08:29:55.777Z,9.3357
2024-03-26T08:30:58.519Z,9.3108
2024-03-26T08:32:01.218Z,9.5176
2024-03-26T08:33:04.408Z,9.6027
2024-03-26T08:34:07.142Z,9.4489
2024-03-26T08:35:09.859Z,9.6045
2024-03-26T08:36:13.017Z,9.7592
2024-03-26T08:37:12.670Z,9.9871
2024-03-26T08:38:15.355Z,10.1826
2024-03-26T08:39:18.055Z,10.0745
2024-03-26T08:40:20.941Z,9.8118
2024-03-26T08:41:23.793Z,9.9049
2024-03-26T08:42:26.519Z,9.7029
2024-03-26T08:43:29.285Z,9.5582
2024-03-26T08:44:32.351Z,9.2449
2024-03-26T08:45:35.019Z,9.5148
2024-03-26T08:46:37.706Z,9.7750
2024-03-26T08:47:40.428Z,9.7827
2024-03-26T08:48:43.152Z,9.4649
2024-03-26T08:49:45.860Z,9.1842
2024-03-26T08:50:48.606Z,9.1813
2024-03-26T08:51:52.202Z,9.2020
2024-03-26T08:52:51.571Z,9.1087
2024-03-26T08:53:54.279Z,9.2857
2024-03-26T08:54:56.979Z,9.4492
2024-03-26T08:56:08.565Z,9.5489
2024-03-26T08:57:01.407Z,9.3422
2024-03-26T08:58:04.058Z,9.5597
2024-03-26T08:59:06.806Z,9.6836
2024-03-26T09:00:09.557Z,9.7573
2024-03-26T09:01:12.279Z,10.0665
2024-03-26T09:02:14.992Z,9.9174
2024-03-26T09:03:17.772Z,9.8934
2024-03-26T09:04:21.934Z,10.0395
2024-03-26T09:05:22.608Z,10.0405
2024-03-26T09:06:25.299Z,10.0558
2024-03-26T09:07:28.206Z,10.1309
2024-03-26T09:08:31.000Z,10.2694
2024-03-26T09:09:33.696Z,10.1706
2024-03-26T09:10:36.431Z,10.5252
2024-03-26T09:11:39.146Z,10.7547
2024-03-26T09:12:41.865Z,11.0607
2024-03-26T09:13:45.019Z,10.5473
2024-03-26T09:14:47.692Z,10.6240
2024-03-26T09:15:50.482Z,10.8802
2024-03-26T09:16:53.192Z,10.6531
2024-03-26T09:17:55.922Z,11.1770
2024-03-26T09:19:01.701Z,11.5151
2024-03-26T09:20:01.641Z,10.9790
2024-03-26T09:21:04.366Z,10.9691
2024-03-26T09:22:07.316Z,11.9267
2024-03-26T09:23:10.026Z,11.7531
2024-03-26T09:24:12.719Z,12.1523
2024-03-26T09:25:15.460Z,11.8252
2024-03-26T09:26:18.195Z,11.9989
2024-03-26T09:27:20.922Z,11.9277
2024-03-26T09:28:23.692Z,12.1545
2024-03-26T09:29:26.365Z,12.6517
2024-03-26T09:30:29.377Z,12.7733
2024-03-26T09:31:32.141Z,12.9129
2024-03-26T09:32:34.830Z,12.7089
2024-03-26T09:33:37.597Z,11.9525
2024-03-26T09:34:40.332Z,11.7645
2024-03-26T09:35:43.308Z,12.2069
2024-03-26T09:36:46.158Z,12.6339
2024-03-26T09:37:49.941Z,12.7945
2024-03-26T09:38:51.048Z,12.5808
2024-03-26T09:39:51.748Z,11.9713
2024-03-26T09:40:54.555Z,12.3309
2024-03-26T09:41:57.439Z,11.8768
2024-03-26T09:43:00.167Z,12.7318
2024-03-26T09:44:03.050Z,12.7561
2024-03-26T09:45:06.857Z,12.3493
2024-03-26T09:46:06.659Z,11.8043
2024-03-26T09:47:09.377Z,11.2572
2024-03-26T09:48:12.096Z,11.2793
2024-03-26T09:49:14.830Z,11.5458
2024-03-26T09:50:17.628Z,12.1327
2024-03-26T09:51:20.571Z,12.1453
2024-03-26T09:52:23.331Z,12.1168
2024-03-26T09:53:26.068Z,12.2459
2024-03-26T09:54:28.996Z,12.5214
2024-03-26T09:55:31.805Z,12.8889
2024-03-26T09:56:34.528Z,12.5631
2024-03-26T09:57:37.274Z,12.7926
2024-03-26T09:58:40.289Z,12.3205
2024-03-26T09:59:43.093Z,12.6072
2024-03-26T10:00:45.834Z,12.9131
2024-03-26T10:01:48.548Z,12.7864
2024-03-26T10:02:51.454Z,12.9208
2024-03-26T10:03:54.509Z,12.7300
2024-03-26T10:04:57.244Z,12.8043
2024-03-26T10:06:00.097Z,12.5270
2024-03-26T10:07:02.982Z,11.8326
2024-03-26T10:08:05.715Z,11.5718
2024-03-26T10:09:08.735Z,11.5877
2024-03-26T10:10:11.488Z,11.9492
2024-03-26T10:11:14.273Z,11.5412
2024-03-26T10:12:17.243Z,11.6392
2024-03-26T10:13:20.003Z,12.1047
2024-03-26T10:14:22.771Z,12.5419
2024-03-26T10:15:25.700Z,12.4259
2024-03-26T10:16:28.426Z,12.3889
2024-03-26T10:17:33.250Z,12.4331
2024-03-26T10:18:32.854Z,12.8440
2024-03-26T10:19:35.608Z,12.1556
2024-03-26T10:20:38.412Z,11.9721
2024-03-26T10:21:41.373Z,12.3112
2024-03-26T10:22:44.108Z,12.2226
2024-03-26T10:23:46.901Z,12.4124
2024-03-26T10:24:49.858Z,12.6844
2024-03-26T10:25:52.572Z,12.7236
2024-03-26T10:26:55.381Z,13.1428
2024-03-26T10:27:58.097Z,12.7417
2024-03-26T10:29:01.082Z,12.6735
2024-03-26T10:30:03.886Z,12.6973
2024-03-26T10:31:06.653Z,12.1866
2024-03-26T10:32:09.629Z,11.4629
2024-03-26T10:33:12.560Z,11.7654
2024-03-26T10:34:15.245Z,11.8854
2024-03-26T10:35:18.021Z,12.2468
2024-03-26T10:36:20.815Z,12.1842
2024-03-26T10:37:23.548Z,12.3711
2024-03-26T10:38:26.487Z,12.0630
2024-03-26T10:39:29.285Z,11.6398
2024-03-26T10:40:32.021Z,11.6924
2024-03-26T10:41:34.935Z,12.5374
2024-03-26T10:42:37.968Z,12.0743
2024-03-26T10:43:40.695Z,12.3010
2024-03-26T10:44:43.704Z,12.2219
2024-03-26T10:45:59.960Z,12.3337
2024-03-26T10:46:49.399Z,12.3655
2024-03-26T10:47:48.938Z,12.3654
2024-03-26T10:48:57.495Z,12.2188
2024-03-26T10:49:53.414Z,12.1504
2024-03-26T10:50:56.625Z,12.2809
2024-03-26T10:51:59.377Z,12.1183
2024-03-26T10:53:02.296Z,11.5230
2024-03-26T10:54:05.103Z,11.9112
2024-03-26T10:55:07.830Z,12.1873
2024-03-26T10:56:10.714Z,12.0482
2024-03-26T10:57:13.478Z,12.2106
2024-03-26T10:58:16.201Z,12.2306
2024-03-26T10:59:18.979Z,12.4983
2024-03-26T11:00:21.946Z,12.6003
2024-03-26T11:01:24.666Z,12.9466
2024-03-26T11:02:27.396Z,12.9312
2024-03-26T11:03:30.106Z,13.3588
2024-03-26T11:04:32.831Z,13.7923
2024-03-26T11:05:35.861Z,14.1522
2024-03-26T11:06:38.606Z,14.3972
2024-03-26T11:07:41.577Z,14.9254
2024-03-26T11:08:44.360Z,14.9017
2024-03-26T11:09:47.115Z,15.3895
2024-03-26T11:10:52.500Z,14.7513
2024-03-26T11:11:52.099Z,15.0906
2024-03-26T11:12:54.890Z,15.7387
2024-03-26T11:13:57.639Z,16.1456
2024-03-26T11:15:00.454Z,15.8062
2024-03-26T11:16:03.799Z,16.1180
2024-03-26T11:17:04.044Z,17.3228
2024-03-26T11:18:06.936Z,17.0697
2024-03-26T11:19:09.727Z,17.3906
2024-03-26T11:20:12.668Z,17.6760
2024-03-26T11:21:15.396Z,17.6281
2024-03-26T11:22:18.459Z,17.3373
2024-03-26T11:23:21.258Z,17.0328
2024-03-26T11:24:23.998Z,16.5644
2024-03-26T11:25:26.788Z,16.6073
2024-03-26T11:26:29.657Z,17.1353
2024-03-26T11:27:32.676Z,17.1041
2024-03-26T11:28:35.391Z,16.5371
2024-03-26T11:29:38.302Z,16.7577
2024-03-26T11:30:41.157Z,18.0189
2024-03-26T11:31:43.956Z,18.2123
2024-03-26T11:32:46.707Z,19.1027
2024-03-26T11:33:49.631Z,19.6323
2024-03-26T11:34:52.459Z,16.8956
2024-03-26T11:35:55.202Z,17.1742
2024-03-26T11:36:58.108Z,17.3729
2024-03-26T11:38:03.485Z,18.0204
2024-03-26T11:39:03.087Z,18.7706
2024-03-26T11:40:06.024Z,18.6006
2024-03-26T11:41:08.984Z,18.3985
2024-03-26T11:42:11.867Z,18.1641
2024-03-26T11:43:14.762Z,18.4400
2024-03-26T11:44:17.554Z,18.6139
2024-03-26T11:45:20.518Z,19.3888
2024-03-26T11:46:23.267Z,20.6186
2024-03-26T11:47:26.101Z,20.1215
2024-03-26T11:48:28.844Z,18.6752
2024-03-26T11:49:31.762Z,18.3831
2024-03-26T11:50:34.536Z,17.8948
2024-03-26T11:51:37.869Z,18.5822
2024-03-26T11:52:38.301Z,18.5279
2024-03-26T11:53:41.310Z,18.9717
2024-03-26T11:54:44.118Z,18.3191
2024-03-26T11:55:47.085Z,18.1948
2024-03-26T11:56:49.848Z,18.0620
2024-03-26T11:57:52.625Z,17.7093
2024-03-26T11:58:55.578Z,18.9039
2024-03-26T11:59:58.326Z,18.6112
2024-03-26T12:01:01.099Z,19.0587
2024-03-26T12:02:03.839Z,18.2510
2024-03-26T12:03:06.796Z,18.3185
2024-03-26T12:04:09.524Z,18.3390
2024-03-26T12:05:12.527Z,17.9259
2024-03-26T12:06:15.245Z,16.5994
2024-03-26T12:07:17.996Z,18.3147
2024-03-26T12:08:20.749Z,18.4316
2024-03-26T12:09:23.545Z,18.5512
2024-03-26T12:10:26.317Z,18.3911
2024-03-26T12:11:29.191Z,19.0600
2024-03-26T12:12:31.879Z,17.3321
2024-03-26T12:13:34.607Z,18.6072
2024-03-26T12:14:37.345Z,18.9839
2024-03-26T12:15:40.374Z,20.4966
2024-03-26T12:16:43.331Z,19.5349
2024-03-26T12:17:46.230Z,19.4052
2024-03-26T12:18:48.969Z,19.7518
2024-03-26T12:19:51.882Z,19.0005
2024-03-26T12:20:54.946Z,19.2058
2024-03-26T12:21:57.693Z,17.9764
2024-03-26T12:23:00.492Z,18.6209
2024-03-26T12:24:03.272Z,18.8618
2024-03-26T12:25:06.166Z,18.9928
2024-03-26T12:26:08.910Z,18.0917
2024-03-26T12:27:11.844Z,16.8389
2024-03-26T12:28:14.649Z,18.1783
2024-03-26T12:29:17.399Z,19.4298
2024-03-26T12:30:20.404Z,19.2815
2024-03-26T12:31:23.325Z,19.9363
2024-03-26T12:32:26.124Z,18.9581
2024-03-26T12:33:28.949Z,20.0856
2024-03-26T12:34:31.871Z,20.3737
2024-03-26T12:35:34.624Z,20.2720
2024-03-26T12:36:37.460Z,20.1847
2024-03-26T12:37:40.390Z,19.4969
2024-03-26T12:38:43.128Z,19.8411
2024-03-26T12:39:46.109Z,20.2289
2024-03-26T12:40:48.949Z,19.2392
2024-03-26T12:41:51.696Z,19.4521
2024-03-26T12:42:54.611Z,20.4870
2024-03-26T12:43:57.330Z,20.0200
2024-03-26T12:45:00.167Z,20.2225
2024-03-26T12:46:02.974Z,18.8614
2024-03-26T12:47:05.825Z,18.3277
2024-03-26T12:48:08.649Z,17.6826
2024-03-26T12:49:11.568Z,17.2083
2024-03-26T12:50:14.392Z,17.6754
2024-03-26T12:51:17.145Z,19.0622
2024-03-26T12:52:20.041Z,20.0948
2024-03-26T12:53:22.766Z,20.6195
2024-03-26T12:54:25.816Z,20.2391
2024-03-26T12:55:28.522Z,20.4146